Time;durP1;ratioP1;P1;durP2;ratioP2;P2;SDS_P1;SDS_P2;PMS_P1;PMS_P2;Temp;Humidity;BMP_temperature;BMP_pressure;BME280_temperature;BME280_humidity;BME280_pressure;Samples;Min_cycle;Max_cycle;Signal;HPM_P1;HPM_P2
2021/01/27 00:00:59;;;;;;;0.80;0.63;;;;;;;2.10;98.08;100971.59;5033749;28;20925;-76
2021/01/27 00:03:25;;;;;;;3.70;1.50;;;;;;;2.10;98.37;100971.59;5033716;28;20498;-76
2021/01/27 00:05:53;;;;;;;0.87;0.87;;;;;;;2.09;98.46;100964.63;5033839;28;20496;-77
2021/01/27 00:08:21;;;;;;;1.37;0.93;;;;;;;2.09;98.54;100968.13;5033973;28;20443;-77
2021/01/27 00:10:47;;;;;;;0.40;0.30;;;;;;;2.04;98.60;100957.31;5033505;28;21091;-77
2021/01/27 00:13:16;;;;;;;0.40;0.30;;;;;;;2.09;98.37;100969.97;5033804;28;20498;-77
2021/01/27 00:15:44;;;;;;;0.40;0.30;;;;;;;2.11;98.47;100968.69;5033821;28;20941;-77
2021/01/27 00:18:12;;;;;;;0.97;0.97;;;;;;;2.10;98.23;100974.28;5033621;28;20449;-76
2021/01/27 00:20:39;;;;;;;0.50;0.40;;;;;;;2.13;98.29;100963.13;5033820;28;20482;-77
2021/01/27 00:23:06;;;;;;;3.23;0.87;;;;;;;2.12;98.28;100956.94;5033626;28;20462;-77
2021/01/27 00:25:36;;;;;;;4.90;1.67;;;;;;;2.13;98.26;100961.25;5033726;28;20506;-77
2021/01/27 00:28:03;;;;;;;3.03;1.17;;;;;;;2.09;98.17;100965.44;5033793;28;20933;-77
2021/01/27 00:30:31;;;;;;;0.80;0.70;;;;;;;2.11;97.96;100968.69;5033655;28;20916;-77
2021/01/27 00:32:58;;;;;;;1.37;1.17;;;;;;;2.07;98.25;100954.16;5033202;28;20467;-76
2021/01/27 00:35:27;;;;;;;0.43;0.33;;;;;;;2.08;98.49;100953.13;5033627;28;20507;-76
2021/01/27 00:37:54;;;;;;;0.70;0.57;;;;;;;2.08;98.31;100949.63;5033518;28;20455;-77
2021/01/27 00:40:20;;;;;;;0.40;0.30;;;;;;;2.08;98.26;100946.97;5033279;28;20888;-77
2021/01/27 00:42:48;;;;;;;2.10;2.00;;;;;;;2.08;98.38;100950.47;5033192;28;20478;-77
2021/01/27 00:45:14;;;;;;;0.40;0.30;;;;;;;2.10;98.16;100951.03;5033146;28;20442;-77
2021/01/27 00:47:40;;;;;;;0.40;0.40;;;;;;;2.08;98.09;100950.47;5033156;28;20879;-77
2021/01/27 00:50:08;;;;;;;0.80;0.63;;;;;;;2.10;97.86;100956.38;5033067;28;20513;-77
2021/01/27 00:52:34;;;;;;;2.60;0.70;;;;;;;2.08;98.11;100955.81;5033541;28;20558;-77
2021/01/27 00:55:00;;;;;;;5.83;1.53;;;;;;;2.06;98.39;100952.53;5033334;28;20470;-77
2021/01/27 00:57:27;;;;;;;0.50;0.40;;;;;;;2.08;98.33;100960.31;5033168;28;20489;-77
2021/01/27 00:59:54;;;;;;;0.90;0.83;;;;;;;2.10;98.17;100961.72;5033379;28;20511;-77
2021/01/27 01:02:20;;;;;;;0.40;0.30;;;;;;;2.12;97.75;100964.94;5032999;28;20505;-77
2021/01/27 01:04:46;;;;;;;1.97;0.77;;;;;;;2.14;97.90;100962.88;5033486;28;20471;-77
2021/01/27 01:07:12;;;;;;;0.53;0.53;;;;;;;2.09;97.38;100957.44;5033245;28;20445;-76
2021/01/27 01:09:38;;;;;;;1.70;0.57;;;;;;;2.11;97.54;100952.66;5033134;28;20552;-77
2021/01/27 01:12:05;;;;;;;1.57;1.50;;;;;;;2.10;97.93;100956.38;5032897;28;20473;-77
2021/01/27 01:14:31;;;;;;;0.40;0.30;;;;;;;2.16;97.56;100959.97;5033332;28;20780;-77
2021/01/27 01:16:58;;;;;;;1.03;0.97;;;;;;;2.19;97.33;100962.97;5036598;28;20489;-77
2021/01/27 01:19:25;;;;;;;0.40;0.30;;;;;;;2.20;97.66;100961.09;5037041;28;20482;-77
2021/01/27 01:21:51;;;;;;;0.40;0.30;;;;;;;2.22;97.53;100961.69;5036974;28;20500;-77
2021/01/27 01:24:17;;;;;;;0.50;0.40;;;;;;;2.25;97.17;100962.03;5036894;28;20450;-77
2021/01/27 01:26:43;;;;;;;1.67;1.07;;;;;;;2.21;97.34;100960.91;5036648;28;20426;-77
2021/01/27 01:29:10;;;;;;;0.40;0.30;;;;;;;2.22;97.58;100954.50;5036606;28;20950;-77
2021/01/27 01:31:36;;;;;;;0.63;0.63;;;;;;;2.13;97.47;100958.59;5036732;28;20498;-77
2021/01/27 01:34:03;;;;;;;1.60;1.23;;;;;;;2.12;96.96;100945.44;5036650;28;20453;-77
2021/01/27 01:36:29;;;;;;;4.10;0.60;;;;;;;2.09;97.25;100945.94;5036470;28;20451;-77
2021/01/27 01:38:55;;;;;;;0.77;0.50;;;;;;;2.08;97.41;100947.78;5035881;28;20473;-77
2021/01/27 01:41:21;;;;;;;0.40;0.30;;;;;;;2.12;97.48;100938.22;5036337;28;20469;-77
2021/01/27 01:43:47;;;;;;;15.73;1.73;;;;;;;2.10;97.43;100935.00;5036298;28;20475;-77
2021/01/27 01:46:16;;;;;;;0.60;0.50;;;;;;;2.10;96.98;100935.00;5036446;28;20439;-77
2021/01/27 01:48:45;;;;;;;1.17;1.00;;;;;;;2.02;97.41;100935.34;5036225;28;20877;-77
2021/01/27 01:51:17;;;;;;;0.40;0.30;;;;;;;1.94;97.39;100949.06;5036177;28;20551;-77
2021/01/27 01:53:47;;;;;;;1.67;0.60;;;;;;;1.87;97.63;100935.88;5036410;28;20416;-77
2021/01/27 01:56:16;;;;;;;0.60;0.53;;;;;;;1.84;97.26;100946.19;5036314;28;20443;-77
2021/01/27 01:58:43;;;;;;;1.17;0.83;;;;;;;1.77;97.76;100940.97;5036717;28;20873;-77
2021/01/27 02:01:09;;;;;;;4.40;0.87;;;;;;;1.66;98.39;100949.81;5036315;28;20477;-77
2021/01/27 02:03:37;;;;;;;0.40;0.30;;;;;;;1.65;98.07;100943.66;5035686;28;20897;-77
2021/01/27 02:06:06;;;;;;;1.43;1.33;;;;;;;1.59;98.15;100947.25;5036115;28;20452;-77
2021/01/27 02:08:34;;;;;;;0.73;0.73;;;;;;;1.54;98.22;100947.13;5036052;28;20474;-77
2021/01/27 02:11:00;;;;;;;0.50;0.40;;;;;;;1.48;98.77;100948.88;5035621;28;20575;-77
2021/01/27 02:13:58;;;;;;;0.40;0.30;;;;;;;1.42;98.92;100943.66;5035993;28;20569;-76
2021/01/27 02:16:29;;;;;;;0.70;0.70;;;;;;;1.37;99.51;100940.84;5035569;28;20510;-77
2021/01/27 02:19:50;;;;;;;0.40;0.30;;;;;;;1.35;99.20;100933.09;5036029;28;20892;-77
2021/01/27 02:22:38;;;;;;;0.87;0.87;;;;;;;1.32;98.85;100938.06;5035880;28;20498;-77
2021/01/27 02:25:39;;;;;;;1.73;0.67;;;;;;;1.24;98.63;100928.56;5035774;28;20510;-77
2021/01/27 02:28:10;;;;;;;0.40;0.30;;;;;;;1.19;99.25;100931.91;5035692;28;20469;-77
2021/01/27 02:30:52;;;;;;;0.40;0.30;;;;;;;1.10;99.58;100937.81;5035234;28;20847;-77
2021/01/27 02:33:54;;;;;;;0.77;0.50;;;;;;;1.08;99.52;100935.38;5035324;28;20447;-76
2021/01/27 02:36:24;;;;;;;1.73;0.57;;;;;;;1.01;99.27;100937.31;5035236;28;20461;-77
2021/01/27 02:38:54;;;;;;;0.40;0.30;;;;;;;0.97;99.98;100941.50;5035295;28;20443;-77
2021/01/27 02:41:29;;;;;;;0.40;0.30;;;;;;;0.97;99.65;100942.31;5035312;28;20511;-76
2021/01/27 02:43:59;;;;;;;1.63;0.50;;;;;;;0.93;99.63;100938.50;5034967;28;20944;-77
2021/01/27 02:46:30;;;;;;;2.20;0.83;;;;;;;0.84;99.49;100937.19;5035515;28;20487;-76
2021/01/27 02:49:02;;;;;;;0.77;0.60;;;;;;;0.81;99.76;100939.50;5035020;28;20815;-77
2021/01/27 02:51:36;;;;;;;0.40;0.30;;;;;;;0.74;99.61;100944.91;5035125;28;20550;-77
2021/01/27 02:54:09;;;;;;;0.50;0.50;;;;;;;0.70;99.67;100938.41;5035295;28;20451;-77
2021/01/27 02:56:41;;;;;;;3.10;1.00;;;;;;;0.67;99.67;100941.53;5035279;28;20424;-76
2021/01/27 02:59:15;;;;;;;0.40;0.30;;;;;;;0.66;99.34;100939.88;5035186;28;20526;-77
2021/01/27 03:01:46;;;;;;;0.40;0.40;;;;;;;0.65;99.25;100938.28;5034701;28;20534;-77
2021/01/27 03:04:19;;;;;;;1.00;1.00;;;;;;;0.65;99.25;100938.28;5035220;28;20526;-77
2021/01/27 03:06:48;;;;;;;0.50;0.43;;;;;;;0.56;98.30;100932.44;5035105;28;20480;-77
2021/01/27 03:09:18;;;;;;;0.53;0.50;;;;;;;0.61;98.61;100932.56;5034668;28;20451;-77
2021/01/27 03:11:44;;;;;;;0.40;0.30;;;;;;;0.60;98.48;100935.47;5034785;28;20489;-77
2021/01/27 03:14:11;;;;;;;1.10;0.87;;;;;;;0.56;98.92;100935.09;5034909;28;20872;-77
2021/01/27 03:16:43;;;;;;;0.60;0.60;;;;;;;0.54;99.45;100931.88;5034376;28;20443;-77
2021/01/27 03:19:13;;;;;;;0.40;0.30;;;;;;;0.51;99.55;100929.66;5034968;28;20430;-77
2021/01/27 03:21:47;;;;;;;2.63;1.17;;;;;;;0.54;99.33;100934.53;5034430;28;20546;-77
2021/01/27 03:24:18;;;;;;;0.40;0.30;;;;;;;0.48;100.00;100938.88;5034813;28;20427;-77
2021/01/27 03:26:53;;;;;;;0.40;0.30;;;;;;;0.40;100.00;100935.72;5034601;28;20438;-77
2021/01/27 03:29:27;;;;;;;0.50;0.40;;;;;;;0.48;99.94;100944.22;5034781;28;20521;-77
2021/01/27 03:31:55;;;;;;;0.40;0.33;;;;;;;0.48;99.74;100938.09;5034465;28;20506;-77
2021/01/27 03:34:26;;;;;;;0.50;0.40;;;;;;;0.48;100.00;100938.09;5034272;28;20530;-77
2021/01/27 03:37:00;;;;;;;0.40;0.27;;;;;;;0.48;100.00;100932.75;5034143;28;20978;-77
2021/01/27 03:39:33;;;;;;;1.80;0.83;;;;;;;0.50;100.00;100936.84;5034037;28;20492;-77
2021/01/27 03:42:05;;;;;;;1.93;0.97;;;;;;;0.55;100.00;100938.81;5034155;28;20873;-77
2021/01/27 03:44:37;;;;;;;1.40;0.90;;;;;;;0.56;100.00;100932.44;5034057;28;20519;-77
2021/01/27 03:47:07;;;;;;;0.87;0.73;;;;;;;0.61;100.00;100937.09;5034096;28;20914;-76
2021/01/27 03:49:36;;;;;;;0.60;0.50;;;;;;;0.65;100.00;100939.09;5033841;28;20462;-77
2021/01/27 03:52:08;;;;;;;0.40;0.40;;;;;;;0.68;100.00;100937.81;5033707;28;20518;-76
2021/01/27 03:54:39;;;;;;;0.60;0.40;;;;;;;0.74;100.00;100932.38;5034239;28;20424;-77
2021/01/27 03:57:12;;;;;;;2.27;0.60;;;;;;;0.78;100.00;100930.09;5034063;28;20427;-77
2021/01/27 03:59:38;;;;;;;0.40;0.30;;;;;;;0.87;100.00;100923.38;5033846;28;20526;-77
2021/01/27 04:02:14;;;;;;;0.40;0.30;;;;;;;0.87;100.00;100941.25;5033756;28;20463;-77
2021/01/27 04:04:40;;;;;;;0.40;0.30;;;;;;;0.89;100.00;100929.31;5033952;28;20433;-77
2021/01/27 04:07:06;;;;;;;0.80;0.50;;;;;;;0.93;100.00;100929.66;5033894;28;20534;-77
2021/01/27 04:09:33;;;;;;;0.40;0.30;;;;;;;0.87;100.00;100926.06;5033812;28;20539;-77
2021/01/27 04:12:00;;;;;;;0.40;0.40;;;;;;;0.91;100.00;100937.88;5033676;28;20543;-77
2021/01/27 04:14:26;;;;;;;4.93;0.73;;;;;;;0.96;100.00;100940.69;5033689;28;20457;-77
2021/01/27 04:16:52;;;;;;;3.30;1.00;;;;;;;0.96;100.00;100939.88;5033609;28;20896;-77
2021/01/27 04:19:18;;;;;;;1.27;1.23;;;;;;;0.94;100.00;100936.63;5033541;28;20536;-77
2021/01/27 04:21:44;;;;;;;0.93;0.83;;;;;;;0.92;100.00;100934.16;5033389;28;20550;-77
2021/01/27 04:24:10;;;;;;;1.07;0.93;;;;;;;0.82;100.00;100930.44;5033650;28;20508;-77
2021/01/27 04:26:37;;;;;;;0.93;0.63;;;;;;;0.86;100.00;100935.09;5033590;28;20451;-77
2021/01/27 04:29:04;;;;;;;0.40;0.30;;;;;;;0.89;100.00;100923.97;5033610;28;20542;-77
2021/01/27 04:31:31;;;;;;;0.40;0.30;;;;;;;0.90;100.00;100925.59;5033012;28;20509;-76
2021/01/27 04:33:57;;;;;;;0.93;0.50;;;;;;;0.92;100.00;100928.03;5033226;28;20439;-76
2021/01/27 04:36:23;;;;;;;1.53;1.00;;;;;;;0.82;100.00;100928.59;5033474;28;20544;-76
2021/01/27 04:38:50;;;;;;;7.03;0.60;;;;;;;0.93;100.00;100922.50;5033323;28;20484;-76
2021/01/27 04:41:17;;;;;;;0.40;0.30;;;;;;;1.00;100.00;100925.03;5033248;28;20451;-76
2021/01/27 04:43:46;;;;;;;0.40;0.37;;;;;;;1.04;100.00;100917.41;5033451;28;20518;-76
2021/01/27 04:46:19;;;;;;;1.10;0.50;;;;;;;1.10;100.00;100914.59;5033133;28;21008;-77
2021/01/27 04:48:53;;;;;;;0.63;0.63;;;;;;;1.14;100.00;100923.78;5033191;28;20562;-76
2021/01/27 04:51:25;;;;;;;0.93;0.83;;;;;;;1.21;100.00;100921.03;5036488;28;20475;-76
2021/01/27 04:54:09;;;;;;;0.60;0.60;;;;;;;1.29;100.00;100927.88;5037120;28;20427;-76
2021/01/27 04:56:48;;;;;;;0.40;0.30;;;;;;;1.39;100.00;100914.75;5037184;28;20918;-76
2021/01/27 04:59:24;;;;;;;0.60;0.50;;;;;;;1.36;100.00;100918.69;5037481;28;20518;-76
2021/01/27 05:02:14;;;;;;;2.97;2.77;;;;;;;1.38;100.00;100916.63;5037105;28;20466;-76
2021/01/27 05:04:59;;;;;;;0.40;0.33;;;;;;;1.46;100.00;100918.09;5037333;28;20565;-77
2021/01/27 05:07:31;;;;;;;0.60;0.60;;;;;;;1.44;100.00;100910.34;5037381;28;20427;-77
2021/01/27 05:10:00;;;;;;;1.53;1.43;;;;;;;1.54;100.00;100915.09;5037128;28;20490;-77
2021/01/27 05:12:36;;;;;;;1.23;1.17;;;;;;;1.46;100.00;100912.78;5037049;28;20536;-77
2021/01/27 05:15:03;;;;;;;0.80;0.70;;;;;;;1.59;100.00;100906.38;5037156;28;20515;-77
2021/01/27 05:17:30;;;;;;;0.47;0.43;;;;;;;1.57;100.00;100908.50;5037164;28;20444;-77
2021/01/27 05:19:56;;;;;;;2.00;1.90;;;;;;;1.62;100.00;100906.75;5036777;28;20435;-77
2021/01/27 05:22:22;;;;;;;0.40;0.40;;;;;;;1.64;99.85;100915.34;5036845;28;20561;-77
2021/01/27 05:24:49;;;;;;;0.90;0.87;;;;;;;1.61;99.36;100904.31;5036920;28;20446;-77
2021/01/27 05:27:20;;;;;;;0.90;0.60;;;;;;;1.58;99.60;100907.44;5036940;28;20479;-77
2021/01/27 05:29:53;;;;;;;4.77;1.30;;;;;;;1.62;99.78;100906.75;5036832;28;20530;-77
2021/01/27 05:32:20;;;;;;;0.40;0.30;;;;;;;1.60;99.14;100908.84;5036392;28;20489;-77
2021/01/27 05:34:49;;;;;;;0.40;0.30;;;;;;;1.62;99.50;100909.41;5036905;28;20446;-77
2021/01/27 05:37:19;;;;;;;0.50;0.40;;;;;;;1.65;99.49;100895.59;5036591;28;20484;-77
2021/01/27 05:39:47;;;;;;;0.63;0.50;;;;;;;1.74;99.45;100894.19;5036635;28;20502;-77
2021/01/27 05:42:23;;;;;;;5.80;1.07;;;;;;;1.75;99.49;100889.66;5036547;28;20469;-77
2021/01/27 05:44:54;;;;;;;0.50;0.50;;;;;;;1.76;99.30;100888.59;5036463;28;20435;-77
2021/01/27 05:47:24;;;;;;;2.93;1.07;;;;;;;1.80;99.61;100889.75;5036558;28;20559;-77
2021/01/27 05:49:52;;;;;;;0.50;0.43;;;;;;;1.82;99.42;100892.22;5036371;28;20439;-77
2021/01/27 05:52:22;;;;;;;1.67;1.57;;;;;;;1.84;99.71;100888.25;5035908;28;21066;-77
2021/01/27 05:54:48;;;;;;;1.13;0.60;;;;;;;1.84;100.00;100898.13;5036218;28;20503;-77
2021/01/27 05:57:22;;;;;;;0.87;0.87;;;;;;;1.92;99.91;100897.75;5036416;28;20447;-77
2021/01/27 05:59:49;;;;;;;2.03;1.93;;;;;;;1.94;100.00;100898.31;5036241;28;20441;-77
2021/01/27 06:02:15;;;;;;;0.40;0.30;;;;;;;1.95;99.95;100897.31;5035616;28;20481;-77
2021/01/27 06:04:55;;;;;;;1.90;1.23;;;;;;;1.96;100.00;100897.06;5035843;28;20950;-77
2021/01/27 06:07:24;;;;;;;0.50;0.40;;;;;;;1.98;99.91;100889.59;5036243;28;20516;-77
2021/01/27 06:09:53;;;;;;;1.10;1.07;;;;;;;2.03;100.00;100894.22;5035980;28;20968;-77
2021/01/27 06:12:30;;;;;;;0.40;0.30;;;;;;;2.01;100.00;100885.66;5035717;28;20518;-77
2021/01/27 06:15:12;;;;;;;1.83;1.13;;;;;;;2.05;99.96;100889.47;5035565;28;20906;-76
2021/01/27 06:17:43;;;;;;;2.30;2.20;;;;;;;2.07;99.89;100887.38;5035609;28;20538;-76
2021/01/27 06:20:28;;;;;;;5.90;0.93;;;;;;;2.08;99.78;100881.00;5036028;28;20534;-77
2021/01/27 06:23:35;;;;;;;1.50;0.90;;;;;;;2.09;100.00;100882.63;5035549;28;21063;-77
2021/01/27 06:26:14;;;;;;;2.30;1.37;;;;;;;2.11;100.00;100879.69;5035660;28;20986;-76
2021/01/27 06:28:55;;;;;;;0.53;0.50;;;;;;;2.11;99.77;100874.34;5035761;28;20439;-77
2021/01/27 06:31:45;;;;;;;2.10;0.63;;;;;;;2.07;99.47;100874.00;5035517;28;20467;-76
2021/01/27 06:34:43;;;;;;;0.40;0.30;;;;;;;2.03;99.47;100875.53;5035265;28;20445;-77
2021/01/27 06:37:27;;;;;;;0.50;0.40;;;;;;;1.99;99.76;100882.41;5034089;28;20482;-77
2021/01/27 06:40:41;;;;;;;0.93;0.93;;;;;;;1.96;100.00;100878.34;5036550;28;20445;-78
2021/01/27 06:43:39;;;;;;;0.40;0.30;;;;;;;1.90;100.00;100883.81;5035683;28;20545;-77
2021/01/27 06:46:37;;;;;;;0.40;0.30;;;;;;;1.88;100.00;100888.59;5039558;28;20482;-78
2021/01/27 06:49:36;;;;;;;0.40;0.40;;;;;;;1.87;100.00;100884.31;5016820;28;20550;-77
2021/01/27 06:52:48;;;;;;;3.23;1.33;;;;;;;1.88;100.00;100880.59;5018852;28;20589;-78
2021/01/27 06:55:24;;;;;;;2.13;1.93;;;;;;;1.90;100.00;100887.28;5036694;28;20435;-78
2021/01/27 06:58:01;;;;;;;0.40;0.30;;;;;;;1.88;100.00;100883.25;5036909;28;20428;-78
2021/01/27 07:00:41;;;;;;;0.50;0.50;;;;;;;1.92;100.00;100889.75;5035921;28;20423;-77
2021/01/27 07:04:01;;;;;;;1.03;0.93;;;;;;;1.90;100.00;100891.81;5035878;28;20974;-78
2021/01/27 07:06:52;;;;;;;0.90;0.67;;;;;;;1.89;100.00;100895.56;5035915;28;20577;-78
2021/01/27 07:10:00;;;;;;;1.23;0.87;;;;;;;1.90;100.00;100897.16;5035998;28;20440;-78
2021/01/27 07:12:30;;;;;;;0.40;0.30;;;;;;;1.89;100.00;100896.38;5034859;28;20574;-78
2021/01/27 07:15:34;;;;;;;0.50;0.50;;;;;;;1.96;100.00;100886.38;5035572;28;20462;-78
2021/01/27 07:18:25;;;;;;;7.77;2.20;;;;;;;2.06;100.00;100895.63;5035049;28;20964;-78
2021/01/27 07:20:57;;;;;;;0.40;0.30;;;;;;;2.10;99.98;100904.81;5035621;28;20423;-79
2021/01/27 07:23:30;;;;;;;1.50;1.40;;;;;;;2.13;100.00;100902.47;5035806;28;20534;-78
2021/01/27 07:26:04;;;;;;;0.47;0.40;;;;;;;2.16;100.00;100896.63;5035350;28;20438;-78
2021/01/27 07:28:37;;;;;;;0.83;0.83;;;;;;;2.21;99.71;100909.28;5035277;28;20515;-78
2021/01/27 07:31:12;;;;;;;0.40;0.30;;;;;;;2.26;99.76;100899.53;5035123;28;20562;-78
2021/01/27 07:33:46;;;;;;;2.13;0.70;;;;;;;2.27;99.47;100901.16;5034750;28;20545;-78
2021/01/27 07:36:41;;;;;;;1.23;1.23;;;;;;;2.31;99.25;100898.00;5034876;28;20503;-78
2021/01/27 07:39:15;;;;;;;0.73;0.73;;;;;;;2.37;99.03;100905.06;5018687;28;20468;-78
2021/01/27 07:41:51;;;;;;;1.80;1.23;;;;;;;2.33;99.14;100894.03;5034812;28;20543;-78
2021/01/27 07:44:19;;;;;;;0.80;0.80;;;;;;;2.40;98.81;100896.56;5034965;28;20458;-78
2021/01/27 07:46:52;;;;;;;0.77;0.77;;;;;;;2.39;98.45;100892.25;5035033;28;20530;-78
2021/01/27 07:49:29;;;;;;;0.80;0.77;;;;;;;2.37;98.45;100900.53;5034908;28;20472;-78
2021/01/27 07:51:59;;;;;;;0.40;0.30;;;;;;;2.31;98.06;100896.13;5034886;28;21053;-77
2021/01/27 07:54:31;;;;;;;3.20;2.30;;;;;;;2.31;98.30;100898.81;5034886;28;20521;-78
2021/01/27 07:57:04;;;;;;;1.10;1.00;;;;;;;2.32;98.47;100897.75;5034973;28;20500;-78
2021/01/27 07:59:40;;;;;;;0.77;0.77;;;;;;;2.36;98.23;100887.41;5037532;28;20521;-80
2021/01/27 08:02:12;;;;;;;3.93;1.63;;;;;;;2.38;98.10;100893.31;5036832;28;20469;-80
2021/01/27 08:04:44;;;;;;;0.60;0.60;;;;;;;2.41;98.37;100890.16;5037246;28;20437;-79
2021/01/27 08:07:19;;;;;;;0.63;0.63;;;;;;;2.41;98.23;100887.50;5037920;28;20487;-79
2021/01/27 08:09:45;;;;;;;0.93;0.80;;;;;;;2.45;98.28;100888.66;5037542;28;20437;-79
2021/01/27 08:12:18;;;;;;;0.50;0.50;;;;;;;2.48;98.21;100888.16;5036541;28;20494;-79
2021/01/27 08:15:01;;;;;;;4.03;1.47;;;;;;;2.48;97.77;100883.63;5036994;28;20420;-79
2021/01/27 08:17:59;;;;;;;2.10;1.10;;;;;;;2.50;97.32;100889.53;5038693;28;20434;-79
2021/01/27 08:20:28;;;;;;;1.17;0.77;;;;;;;2.49;97.28;100890.59;5004994;28;20470;-78
2021/01/27 08:22:56;;;;;;;0.50;0.40;;;;;;;2.49;97.41;100882.56;5037652;28;20458;-79
2021/01/27 08:25:55;;;;;;;3.40;2.07;;;;;;;2.51;97.70;100883.13;5037058;28;20435;-79
2021/01/27 08:28:41;;;;;;;0.40;0.30;;;;;;;2.61;97.66;100885.19;5037366;28;20466;-79
2021/01/27 08:31:20;;;;;;;3.10;2.03;;;;;;;2.65;97.57;100882.84;5037647;28;20493;-80
2021/01/27 08:34:07;;;;;;;7.30;1.03;;;;;;;2.69;97.82;100879.44;5037967;28;20477;-80
2021/01/27 08:37:03;;;;;;;0.80;0.80;;;;;;;2.74;97.45;100879.50;5038248;28;20447;-80
2021/01/27 08:39:31;;;;;;;1.43;1.33;;;;;;;2.80;97.42;100882.31;5038650;28;20420;-79
2021/01/27 08:42:01;;;;;;;1.33;1.23;;;;;;;2.85;97.15;100885.88;5038166;28;20974;-79
2021/01/27 08:44:33;;;;;;;1.90;0.80;;;;;;;2.88;96.34;100872.00;5039392;28;20435;-79
2021/01/27 08:47:17;;;;;;;2.20;1.37;;;;;;;2.85;96.06;100877.84;5036552;28;20961;-79
2021/01/27 08:49:48;;;;;;;1.00;1.00;;;;;;;2.87;96.41;100865.03;5036613;28;20447;-79
2021/01/27 08:52:42;;;;;;;9.10;3.50;;;;;;;2.88;96.39;100868.50;5034944;28;20483;-80
2021/01/27 08:55:35;;;;;;;1.57;0.60;;;;;;;2.90;96.46;100861.88;4999822;28;20473;-80
2021/01/27 08:58:30;;;;;;;2.13;2.03;;;;;;;2.93;96.10;100856.03;5035924;28;20542;-79
2021/01/27 09:00:58;;;;;;;0.40;0.30;;;;;;;2.94;95.75;100859.53;5001714;28;20534;-80
2021/01/27 09:03:52;;;;;;;3.17;1.80;;;;;;;3.00;95.58;100854.00;5036274;28;21053;-79
2021/01/27 09:06:24;;;;;;;1.63;1.43;;;;;;;3.05;95.58;100845.22;5030611;28;20547;-79
2021/01/27 09:08:52;;;;;;;1.13;1.13;;;;;;;3.10;95.76;100845.34;5037528;28;20441;-79
2021/01/27 09:11:20;;;;;;;1.90;0.43;;;;;;;3.07;95.68;100848.50;5036819;28;20538;-80
2021/01/27 09:13:47;;;;;;;0.47;0.37;;;;;;;3.09;95.26;100842.88;5035695;28;20461;-79
2021/01/27 09:16:16;;;;;;;0.40;0.30;;;;;;;3.14;95.25;100848.31;5037153;28;20447;-80
2021/01/27 09:18:43;;;;;;;0.83;0.83;;;;;;;3.22;95.23;100847.91;5037230;28;20483;-80
2021/01/27 09:21:15;;;;;;;3.37;3.17;;;;;;;3.28;95.04;100845.06;5036191;28;20530;-80
2021/01/27 09:23:43;;;;;;;0.90;0.70;;;;;;;3.36;94.56;100851.03;5036485;28;20542;-80
2021/01/27 09:26:15;;;;;;;0.87;0.40;;;;;;;3.41;94.08;100851.09;5037641;28;20469;-80
2021/01/27 09:28:41;;;;;;;0.50;0.40;;;;;;;3.48;94.18;100846.41;5038357;28;20833;-80
2021/01/27 09:31:12;;;;;;;4.73;2.20;;;;;;;3.59;93.27;100848.16;5038285;28;20857;-79
2021/01/27 09:33:38;;;;;;;1.13;1.07;;;;;;;3.59;92.48;100850.03;5037535;28;20581;-80
2021/01/27 09:36:09;;;;;;;0.97;0.93;;;;;;;3.63;92.75;100851.97;5039020;28;20534;-79
2021/01/27 09:38:35;;;;;;;2.10;1.03;;;;;;;3.68;92.75;100849.34;5040657;28;20865;-80
2021/01/27 09:41:05;;;;;;;2.00;0.80;;;;;;;3.62;92.65;100850.31;5040938;28;20535;-80
2021/01/27 09:43:36;;;;;;;1.33;1.23;;;;;;;3.57;92.02;100842.22;5040146;28;20474;-79
2021/01/27 09:46:17;;;;;;;0.50;0.40;;;;;;;3.53;92.32;100841.91;5041558;28;20470;-80
2021/01/27 09:48:44;;;;;;;1.27;1.17;;;;;;;3.47;92.13;100852.81;5041525;28;20478;-80
2021/01/27 09:51:14;;;;;;;3.73;1.10;;;;;;;3.46;92.30;100832.47;5043566;28;20558;-80
2021/01/27 09:53:41;;;;;;;3.90;0.60;;;;;;;3.57;92.10;100838.75;5044478;28;20862;-81
2021/01/27 09:56:09;;;;;;;2.17;1.53;;;;;;;3.63;91.31;100830.53;5045270;28;20522;-80
2021/01/27 09:58:39;;;;;;;3.80;2.80;;;;;;;3.72;91.44;100838.94;5045146;28;20871;-81
2021/01/27 10:01:09;;;;;;;0.97;0.57;;;;;;;3.73;91.61;100838.69;5048443;28;20471;-80
2021/01/27 10:03:40;;;;;;;0.83;0.83;;;;;;;3.78;90.71;100841.44;5044308;28;20474;-80
2021/01/27 10:06:30;;;;;;;0.60;0.50;;;;;;;3.79;90.61;100834.19;5044603;28;20440;-80
2021/01/27 10:08:58;;;;;;;0.80;0.80;;;;;;;3.80;90.36;100830.47;5046578;28;20526;-80
2021/01/27 10:11:29;;;;;;;0.50;0.43;;;;;;;3.87;90.05;100838.31;5041471;28;21104;-80
2021/01/27 10:14:01;;;;;;;0.50;0.37;;;;;;;3.88;90.18;100834.56;5044233;28;20526;-80
2021/01/27 10:16:27;;;;;;;1.13;1.03;;;;;;;3.98;89.72;100832.00;5045262;28;20489;-79
2021/01/27 10:19:02;;;;;;;0.40;0.30;;;;;;;4.01;89.05;100834.19;5043714;28;20485;-79
2021/01/27 10:21:28;;;;;;;0.70;0.60;;;;;;;3.96;87.79;100820.75;5045627;28;20435;-80
2021/01/27 10:23:55;;;;;;;5.07;0.90;;;;;;;3.96;88.44;100812.69;5044180;28;20494;-81
2021/01/27 10:26:38;;;;;;;0.50;0.40;;;;;;;4.03;87.76;100816.00;5044543;28;20442;-80
2021/01/27 10:29:31;;;;;;;1.00;1.00;;;;;;;4.04;88.03;100814.94;5044072;28;20424;-80
2021/01/27 10:31:58;;;;;;;1.20;1.20;;;;;;;4.07;87.72;100809.06;5040358;28;20519;-80
2021/01/27 10:34:39;;;;;;;1.33;1.00;;;;;;;4.16;87.56;100818.28;5043025;28;20488;-79
2021/01/27 10:37:24;;;;;;;1.27;0.63;;;;;;;4.22;86.98;100817.25;5053116;28;20446;-80
2021/01/27 10:40:13;;;;;;;3.80;1.17;;;;;;;4.35;86.89;100807.22;5043750;28;20435;-80
2021/01/27 10:42:40;;;;;;;1.27;0.80;;;;;;;4.41;85.93;100808.84;5043354;28;20496;-80
2021/01/27 10:45:31;;;;;;;1.33;0.80;;;;;;;4.50;85.26;100808.13;5044587;28;20542;-81
2021/01/27 10:48:00;;;;;;;4.77;1.07;;;;;;;4.50;85.33;100802.78;5044258;28;20457;-80
2021/01/27 10:50:27;;;;;;;0.50;0.50;;;;;;;4.49;84.47;100806.53;5043621;28;20468;-80
2021/01/27 10:52:54;;;;;;;13.13;1.90;;;;;;;4.49;83.92;100801.16;5041469;28;20562;-80
2021/01/27 10:55:21;;;;;;;0.50;0.40;;;;;;;4.55;84.55;100804.69;5043141;28;20471;-80
2021/01/27 10:57:47;;;;;;;0.60;0.60;;;;;;;4.58;83.96;100800.69;5042703;28;20471;-80
2021/01/27 11:00:17;;;;;;;3.90;1.17;;;;;;;4.65;83.93;100802.09;5043935;28;20558;-81
2021/01/27 11:02:44;;;;;;;0.40;0.30;;;;;;;4.75;84.11;100802.19;5042548;28;20989;-80
2021/01/27 11:05:11;;;;;;;1.00;0.80;;;;;;;4.87;83.45;100801.19;5043885;28;20526;-80
2021/01/27 11:07:38;;;;;;;1.80;1.53;;;;;;;4.82;82.22;100804.63;5041258;28;20467;-81
2021/01/27 11:10:06;;;;;;;0.83;0.70;;;;;;;5.05;82.76;100798.09;5040465;28;20511;-80
2021/01/27 11:12:33;;;;;;;4.77;1.37;;;;;;;5.13;81.59;100796.78;5041860;28;20931;-80
2021/01/27 11:14:59;;;;;;;0.97;0.90;;;;;;;5.38;81.28;100796.13;5038980;28;20440;-80
2021/01/27 11:17:26;;;;;;;0.77;0.77;;;;;;;5.50;79.70;100802.09;5040366;28;20504;-79
2021/01/27 11:19:52;;;;;;;2.60;2.23;;;;;;;5.65;78.97;100804.84;5041868;28;20447;-77
2021/01/27 11:22:18;;;;;;;0.73;0.73;;;;;;;5.76;77.80;100800.34;5040488;28;20550;-79
2021/01/27 11:24:44;;;;;;;2.07;0.50;;;;;;;5.91;76.13;100796.88;5048137;28;20490;-80
2021/01/27 11:27:10;;;;;;;1.67;0.97;;;;;;;6.08;76.54;100786.75;5043548;28;20509;-80
2021/01/27 11:29:37;;;;;;;1.23;1.13;;;;;;;6.15;74.55;100789.16;5044568;28;20440;-78
2021/01/27 11:32:03;;;;;;;3.80;2.17;;;;;;;6.22;73.77;100790.53;5041634;28;20551;-79
2021/01/27 11:34:30;;;;;;;0.97;0.70;;;;;;;6.24;73.38;100783.00;5040509;28;20534;-79
2021/01/27 11:36:56;;;;;;;6.80;0.63;;;;;;;6.26;72.25;100778.16;5039891;28;20481;-79
2021/01/27 11:39:22;;;;;;;2.73;1.67;;;;;;;6.41;71.75;100780.03;5039479;28;20965;-80
2021/01/27 11:41:49;;;;;;;1.10;0.80;;;;;;;6.40;69.94;100780.31;5038349;28;20506;-78
2021/01/27 11:44:15;;;;;;;2.47;0.93;;;;;;;6.45;70.81;100774.94;5041010;28;20506;-79
2021/01/27 11:46:43;;;;;;;2.23;1.70;;;;;;;6.56;71.56;100777.38;5039509;28;20885;-79
2021/01/27 11:49:09;;;;;;;1.90;1.00;;;;;;;6.60;70.87;100779.50;5042595;28;20459;-80
2021/01/27 11:51:36;;;;;;;0.90;0.87;;;;;;;6.70;71.29;100769.56;5044175;28;20562;-80
2021/01/27 11:54:02;;;;;;;2.20;1.87;;;;;;;6.95;71.89;100775.97;5047130;28;20474;-80
2021/01/27 11:56:28;;;;;;;1.67;1.47;;;;;;;7.21;70.11;100769.47;5045161;28;20475;-80
2021/01/27 11:58:55;;;;;;;1.03;0.90;;;;;;;7.65;65.62;100774.16;5046689;28;20435;-81